Bunker Hill, West Virginia
Current Conditions -  °F | °C
As of 12:53 PM on Saturday 20 Dec 2014 (Local Time) from KMRB Reporting Station
Clear Clear  
Wind Chill: 34°   Ceiling: Unl
Heat Index: 34°   Visibility: 10mi
Dew Point: 18°   Wind: 3mph
Humidity: 52%   Direction: 40°NE
Pressure: 30.26"   Gusts: NA
Location:  39.33°N, 78.05°W
Report Text: KMRB 201753Z 04003KT 10SM CLR 01/M08 A3026 RMK AO2 SLP252 T00111078 10017 21061 56021
Loading
Personal Weather Stations






























Interactive Weather Map New forecast layout! Learn more

10-Day Weather Forecast

Advertisements
Track Severe Weather on mobile